sensor_id;sensor_type;location;lat;lon;timestamp;pressure;altitude;pressure_sealevel;temperature
45976;BMP280;31696;42.668;23.322;2023-05-07T00:00:24;94930.69;;;12.29
45976;BMP280;31696;42.668;23.322;2023-05-07T00:02:25;94934.53;;;12.28
45976;BMP280;31696;42.668;23.322;2023-05-07T00:04:26;94936.00;;;12.13
45976;BMP280;31696;42.668;23.322;2023-05-07T00:06:29;94937.34;;;12.14
45976;BMP280;31696;42.668;23.322;2023-05-07T00:08:30;94937.25;;;12.30
45976;BMP280;31696;42.668;23.322;2023-05-07T00:10:31;94933.84;;;12.19
45976;BMP280;31696;42.668;23.322;2023-05-07T00:12:32;94933.03;;;12.09
45976;BMP280;31696;42.668;23.322;2023-05-07T00:14:35;94936.06;;;11.91
45976;BMP280;31696;42.668;23.322;2023-05-07T00:16:35;94933.41;;;12.13
45976;BMP280;31696;42.668;23.322;2023-05-07T00:18:36;94934.66;;;12.30
45976;BMP280;31696;42.668;23.322;2023-05-07T00:20:38;94928.00;;;12.11
45976;BMP280;31696;42.668;23.322;2023-05-07T00:22:39;94926.72;;;11.80
45976;BMP280;31696;42.668;23.322;2023-05-07T00:24:40;94921.84;;;11.92
45976;BMP280;31696;42.668;23.322;2023-05-07T00:26:42;94911.34;;;12.07
45976;BMP280;31696;42.668;23.322;2023-05-07T00:28:43;94919.25;;;11.84
45976;BMP280;31696;42.668;23.322;2023-05-07T00:30:44;94913.88;;;11.90
45976;BMP280;31696;42.668;23.322;2023-05-07T00:32:47;94921.22;;;11.76
45976;BMP280;31696;42.668;23.322;2023-05-07T00:34:50;94913.09;;;11.57
45976;BMP280;31696;42.668;23.322;2023-05-07T00:36:51;94916.00;;;11.69
45976;BMP280;31696;42.668;23.322;2023-05-07T00:38:53;94928.78;;;11.89
45976;BMP280;31696;42.668;23.322;2023-05-07T00:40:53;94935.25;;;11.73
45976;BMP280;31696;42.668;23.322;2023-05-07T00:42:54;94925.25;;;11.54
45976;BMP280;31696;42.668;23.322;2023-05-07T00:44:59;94926.81;;;11.50
45976;BMP280;31696;42.668;23.322;2023-05-07T00:46:59;94924.78;;;11.41
45976;BMP280;31696;42.668;23.322;2023-05-07T00:49:04;94925.44;;;11.34
45976;BMP280;31696;42.668;23.322;2023-05-07T00:51:06;94926.50;;;11.46
45976;BMP280;31696;42.668;23.322;2023-05-07T00:53:07;94929.25;;;11.48
45976;BMP280;31696;42.668;23.322;2023-05-07T00:55:08;94927.84;;;11.62
45976;BMP280;31696;42.668;23.322;2023-05-07T00:57:09;94929.25;;;11.48
45976;BMP280;31696;42.668;23.322;2023-05-07T00:59:09;94925.94;;;11.55
45976;BMP280;31696;42.668;23.322;2023-05-07T01:01:10;94939.16;;;11.27
45976;BMP280;31696;42.668;23.322;2023-05-07T01:03:11;94939.16;;;11.27
45976;BMP280;31696;42.668;23.322;2023-05-07T01:05:12;94935.16;;;11.48
45976;BMP280;31696;42.668;23.322;2023-05-07T01:07:14;94938.97;;;11.32
45976;BMP280;31696;42.668;23.322;2023-05-07T01:09:15;94934.81;;;11.37
45976;BMP280;31696;42.668;23.322;2023-05-07T01:11:15;94933.78;;;11.17
45976;BMP280;31696;42.668;23.322;2023-05-07T01:13:16;94934.31;;;11.00
45976;BMP280;31696;42.668;23.322;2023-05-07T01:15:19;94937.25;;;11.12
45976;BMP280;31696;42.668;23.322;2023-05-07T01:17:20;94936.22;;;11.23
45976;BMP280;31696;42.668;23.322;2023-05-07T01:19:21;94936.72;;;11.14
45976;BMP280;31696;42.668;23.322;2023-05-07T01:21:24;94938.13;;;11.15
45976;BMP280;31696;42.668;23.322;2023-05-07T01:23:27;94935.72;;;10.94
45976;BMP280;31696;42.668;23.322;2023-05-07T01:25:28;94940.41;;;11.11
45976;BMP280;31696;42.668;23.322;2023-05-07T01:27:33;94927.22;;;11.08
45976;BMP280;31696;42.668;23.322;2023-05-07T01:29:37;94939.16;;;11.04
45976;BMP280;31696;42.668;23.322;2023-05-07T01:31:39;94932.03;;;11.12
45976;BMP280;31696;42.668;23.322;2023-05-07T01:33:43;94929.97;;;10.88
45976;BMP280;31696;42.668;23.322;2023-05-07T01:35:46;94928.25;;;10.90
45976;BMP280;31696;42.668;23.322;2023-05-07T01:37:47;94923.53;;;10.81
45976;BMP280;31696;42.668;23.322;2023-05-07T01:39:48;94921.66;;;10.89
45976;BMP280;31696;42.668;23.322;2023-05-07T01:41:49;94908.66;;;10.74
45976;BMP280;31696;42.668;23.322;2023-05-07T01:43:50;94911.97;;;10.97
45976;BMP280;31696;42.668;23.322;2023-05-07T01:45:52;94909.88;;;11.03
45976;BMP280;31696;42.668;23.322;2023-05-07T01:47:53;94913.88;;;11.04
45976;BMP280;31696;42.668;23.322;2023-05-07T01:49:55;94912.13;;;11.15
45976;BMP280;31696;42.668;23.322;2023-05-07T01:51:56;94899.50;;;11.19
45976;BMP280;31696;42.668;23.322;2023-05-07T01:54:00;94893.25;;;11.06
45976;BMP280;31696;42.668;23.322;2023-05-07T01:56:04;94900.19;;;11.04
45976;BMP280;31696;42.668;23.322;2023-05-07T01:58:05;94898.44;;;10.99
45976;BMP280;31696;42.668;23.322;2023-05-07T02:00:05;94904.16;;;11.05
45976;BMP280;31696;42.668;23.322;2023-05-07T02:02:15;94898.28;;;10.82
45976;BMP280;31696;42.668;23.322;2023-05-07T02:04:17;94888.41;;;11.03
45976;BMP280;31696;42.668;23.322;2023-05-07T02:06:18;94888.56;;;10.82
45976;BMP280;31696;42.668;23.322;2023-05-07T02:08:19;94888.75;;;10.92
45976;BMP280;31696;42.668;23.322;2023-05-07T02:10:20;94885.66;;;10.86
45976;BMP280;31696;42.668;23.322;2023-05-07T02:12:22;94883.91;;;10.88
45976;BMP280;31696;42.668;23.322;2023-05-07T02:14:22;94872.97;;;10.97
45976;BMP280;31696;42.668;23.322;2023-05-07T02:16:23;94876.63;;;11.10
45976;BMP280;31696;42.668;23.322;2023-05-07T02:18:26;94876.09;;;11.26
45976;BMP280;31696;42.668;23.322;2023-05-07T02:20:29;94871.75;;;11.21
45976;BMP280;31696;42.668;23.322;2023-05-07T02:22:30;94874.31;;;11.29
45976;BMP280;31696;42.668;23.322;2023-05-07T02:24:31;94872.81;;;10.95
45976;BMP280;31696;42.668;23.322;2023-05-07T02:26:31;94876.63;;;11.10
45976;BMP280;31696;42.668;23.322;2023-05-07T02:28:32;94880.00;;;11.50
45976;BMP280;31696;42.668;23.322;2023-05-07T02:30:38;94874.50;;;11.31
45976;BMP280;31696;42.668;23.322;2023-05-07T02:32:43;94879.38;;;11.27
45976;BMP280;31696;42.668;23.322;2023-05-07T02:34:43;94880.88;;;11.52
45976;BMP280;31696;42.668;23.322;2023-05-07T02:36:44;94871.41;;;11.17
45976;BMP280;31696;42.668;23.322;2023-05-07T02:38:48;94872.78;;;11.33
45976;BMP280;31696;42.668;23.322;2023-05-07T02:40:48;94889.22;;;11.36
45976;BMP280;31696;42.668;23.322;2023-05-07T02:42:50;94879.34;;;11.34
45976;BMP280;31696;42.668;23.322;2023-05-07T02:44:50;94886.50;;;11.26
45976;BMP280;31696;42.668;23.322;2023-05-07T02:46:52;94885.41;;;11.37
45976;BMP280;31696;42.668;23.322;2023-05-07T02:48:53;94885.59;;;11.24
45976;BMP280;31696;42.668;23.322;2023-05-07T02:50:55;94889.41;;;11.23
45976;BMP280;31696;42.668;23.322;2023-05-07T02:52:58;94894.28;;;11.26
45976;BMP280;31696;42.668;23.322;2023-05-07T02:54:59;94881.44;;;11.28
45976;BMP280;31696;42.668;23.322;2023-05-07T02:57:00;94891.19;;;10.90
45976;BMP280;31696;42.668;23.322;2023-05-07T02:59:01;94888.03;;;11.06
45976;BMP280;31696;42.668;23.322;2023-05-07T03:01:07;94889.28;;;11.05
45976;BMP280;31696;42.668;23.322;2023-05-07T03:03:13;94894.13;;;11.17
45976;BMP280;31696;42.668;23.322;2023-05-07T03:05:13;94898.28;;;11.04
45976;BMP280;31696;42.668;23.322;2023-05-07T03:07:15;94890.84;;;11.08
45976;BMP280;31696;42.668;23.322;2023-05-07T03:09:17;94903.31;;;11.02
45976;BMP280;31696;42.668;23.322;2023-05-07T03:11:18;94899.31;;;11.24
45976;BMP280;31696;42.668;23.322;2023-05-07T03:13:19;94907.81;;;11.10
45976;BMP280;31696;42.668;23.322;2023-05-07T03:15:21;94901.41;;;10.95
45976;BMP280;31696;42.668;23.322;2023-05-07T03:17:22;94911.25;;;11.04
45976;BMP280;31696;42.668;23.322;2023-05-07T03:19:23;94916.31;;;11.02
45976;BMP280;31696;42.668;23.322;2023-05-07T03:21:24;94910.75;;;10.98
45976;BMP280;31696;42.668;23.322;2023-05-07T03:23:28;94913.53;;;11.00
45976;BMP280;31696;42.668;23.322;2023-05-07T03:25:28;94913.72;;;10.87
45976;BMP280;31696;42.668;23.322;2023-05-07T03:27:32;94914.91;;;10.94
45976;BMP280;31696;42.668;23.322;2023-05-07T03:29:33;94907.44;;;10.98
45976;BMP280;31696;42.668;23.322;2023-05-07T03:31:34;94913.72;;;10.87
45976;BMP280;31696;42.668;23.322;2023-05-07T03:33:38;94911.44;;;10.99
45976;BMP280;31696;42.668;23.322;2023-05-07T03:35:38;94912.66;;;10.90
45976;BMP280;31696;42.668;23.322;2023-05-07T03:37:39;94917.00;;;11.03
45976;BMP280;31696;42.668;23.322;2023-05-07T03:39:40;94916.84;;;10.86
45976;BMP280;31696;42.668;23.322;2023-05-07T03:41:43;94924.78;;;10.88
45976;BMP280;31696;42.668;23.322;2023-05-07T03:43:44;94908.47;;;10.65
45976;BMP280;31696;42.668;23.322;2023-05-07T03:45:46;94925.13;;;10.69
45976;BMP280;31696;42.668;23.322;2023-05-07T03:47:52;94931.19;;;10.79
45976;BMP280;31696;42.668;23.322;2023-05-07T03:49:55;94926.66;;;10.72
45976;BMP280;31696;42.668;23.322;2023-05-07T03:51:57;94924.09;;;10.87
45976;BMP280;31696;42.668;23.322;2023-05-07T03:54:00;94934.81;;;10.91
45976;BMP280;31696;42.668;23.322;2023-05-07T03:56:04;94933.75;;;10.64
45976;BMP280;31696;42.668;23.322;2023-05-07T03:58:08;94933.97;;;10.89
45976;BMP280;31696;42.668;23.322;2023-05-07T04:00:10;94926.81;;;10.67
45976;BMP280;31696;42.668;23.322;2023-05-07T04:02:20;94930.13;;;10.67
45976;BMP280;31696;42.668;23.322;2023-05-07T04:04:22;94938.94;;;10.72
45976;BMP280;31696;42.668;23.322;2023-05-07T04:06:23;94944.84;;;10.72
45976;BMP280;31696;42.668;23.322;2023-05-07T04:08:24;94940.88;;;10.86
45976;BMP280;31696;42.668;23.322;2023-05-07T04:10:28;94948.00;;;10.93
45976;BMP280;31696;42.668;23.322;2023-05-07T04:12:30;94955.09;;;11.08
45976;BMP280;31696;42.668;23.322;2023-05-07T04:14:32;94957.34;;;11.04
45976;BMP280;31696;42.668;23.322;2023-05-07T04:16:34;94967.75;;;11.04
45976;BMP280;31696;42.668;23.322;2023-05-07T04:18:35;94970.88;;;11.02
45976;BMP280;31696;42.668;23.322;2023-05-07T04:20:38;94971.19;;;10.91
45976;BMP280;31696;42.668;23.322;2023-05-07T04:22:42;94974.50;;;10.99
45976;BMP280;31696;42.668;23.322;2023-05-07T04:24:44;94973.31;;;11.00
45976;BMP280;31696;42.668;23.322;2023-05-07T04:26:46;94973.13;;;11.21
45976;BMP280;31696;42.668;23.322;2023-05-07T04:28:46;94973.13;;;11.14
45976;BMP280;31696;42.668;23.322;2023-05-07T04:30:49;94986.31;;;11.16
45976;BMP280;31696;42.668;23.322;2023-05-07T04:32:50;94981.63;;;11.29
45976;BMP280;31696;42.668;23.322;2023-05-07T04:34:50;94979.38;;;11.11
45976;BMP280;31696;42.668;23.322;2023-05-07T04:36:51;94987.50;;;11.30
45976;BMP280;31696;42.668;23.322;2023-05-07T04:38:52;94988.19;;;11.38
45976;BMP280;31696;42.668;23.322;2023-05-07T04:40:54;94988.72;;;11.44
45976;BMP280;31696;42.668;23.322;2023-05-07T04:43:00;94987.81;;;11.49
45976;BMP280;31696;42.668;23.322;2023-05-07T04:45:04;94992.50;;;11.58
45976;BMP280;31696;42.668;23.322;2023-05-07T04:47:07;95000.13;;;11.56
45976;BMP280;31696;42.668;23.322;2023-05-07T04:49:09;94995.78;;;11.66
45976;BMP280;31696;42.668;23.322;2023-05-07T04:51:13;94990.06;;;11.75
45976;BMP280;31696;42.668;23.322;2023-05-07T04:53:14;94984.47;;;11.86
45976;BMP280;31696;42.668;23.322;2023-05-07T04:55:15;94989.47;;;11.99
45976;BMP280;31696;42.668;23.322;2023-05-07T04:57:18;94983.78;;;11.86
45976;BMP280;31696;42.668;23.322;2023-05-07T04:59:21;94986.84;;;12.07
45976;BMP280;31696;42.668;23.322;2023-05-07T05:01:24;94993.59;;;12.17
45976;BMP280;31696;42.668;23.322;2023-05-07T05:03:25;94986.28;;;12.16
45976;BMP280;31696;42.668;23.322;2023-05-07T05:05:26;94991.53;;;12.08
45976;BMP280;31696;42.668;23.322;2023-05-07T05:07:29;94983.16;;;12.17
45976;BMP280;31696;42.668;23.322;2023-05-07T05:09:30;94985.22;;;12.27
45976;BMP280;31696;42.668;23.322;2023-05-07T05:11:34;94980.94;;;12.46
45976;BMP280;31696;42.668;23.322;2023-05-07T05:13:35;94981.22;;;12.58
45976;BMP280;31696;42.668;23.322;2023-05-07T05:15:43;94979.13;;;12.64
45976;BMP280;31696;42.668;23.322;2023-05-07T05:17:45;94985.44;;;12.53
45976;BMP280;31696;42.668;23.322;2023-05-07T05:19:49;94980.25;;;12.46
45976;BMP280;31696;42.668;23.322;2023-05-07T05:21:49;94983.47;;;12.86
45976;BMP280;31696;42.668;23.322;2023-05-07T05:23:52;94979.03;;;12.79
45976;BMP280;31696;42.668;23.322;2023-05-07T05:25:56;94985.19;;;12.91
45976;BMP280;31696;42.668;23.322;2023-05-07T05:27:59;94982.06;;;13.34
45976;BMP280;31696;42.668;23.322;2023-05-07T05:30:03;94987.28;;;13.86
45976;BMP280;31696;42.668;23.322;2023-05-07T05:32:05;94986.13;;;13.62
45976;BMP280;31696;42.668;23.322;2023-05-07T05:34:07;94981.97;;;13.93
45976;BMP280;31696;42.668;23.322;2023-05-07T05:36:11;94985.91;;;14.02
45976;BMP280;31696;42.668;23.322;2023-05-07T05:38:13;94985.47;;;14.23
45976;BMP280;31696;42.668;23.322;2023-05-07T05:40:15;94982.19;;;14.22
45976;BMP280;31696;42.668;23.322;2023-05-07T05:42:17;94985.69;;;14.71
45976;BMP280;31696;42.668;23.322;2023-05-07T05:44:18;94988.28;;;15.07
45976;BMP280;31696;42.668;23.322;2023-05-07T05:46:20;94988.75;;;15.42
45976;BMP280;31696;42.668;23.322;2023-05-07T05:48:24;94983.09;;;15.84
45976;BMP280;31696;42.668;23.322;2023-05-07T05:50:26;94984.41;;;16.23
45976;BMP280;31696;42.668;23.322;2023-05-07T05:52:30;94994.25;;;16.53
45976;BMP280;31696;42.668;23.322;2023-05-07T05:54:31;94982.72;;;16.98
45976;BMP280;31696;42.668;23.322;2023-05-07T05:56:32;94986.03;;;16.68
45976;BMP280;31696;42.668;23.322;2023-05-07T05:58:36;94987.03;;;16.94
45976;BMP280;31696;42.668;23.322;2023-05-07T06:00:40;94987.53;;;17.56
45976;BMP280;31696;42.668;23.322;2023-05-07T06:02:44;94987.25;;;17.73
45976;BMP280;31696;42.668;23.322;2023-05-07T06:04:46;94996.63;;;17.76
45976;BMP280;31696;42.668;23.322;2023-05-07T06:06:51;94991.78;;;18.05
45976;BMP280;31696;42.668;23.322;2023-05-07T06:08:53;94990.59;;;18.53
45976;BMP280;31696;42.668;23.322;2023-05-07T06:10:59;94983.25;;;19.11
45976;BMP280;31696;42.668;23.322;2023-05-07T06:13:01;94988.34;;;18.84
45976;BMP280;31696;42.668;23.322;2023-05-07T06:15:08;94986.03;;;19.13
45976;BMP280;31696;42.668;23.322;2023-05-07T06:17:09;94984.63;;;19.74
45976;BMP280;31696;42.668;23.322;2023-05-07T06:19:10;94979.19;;;19.58
45976;BMP280;31696;42.668;23.322;2023-05-07T06:21:13;94977.47;;;19.77
45976;BMP280;31696;42.668;23.322;2023-05-07T06:23:17;94985.78;;;20.37
45976;BMP280;31696;42.668;23.322;2023-05-07T06:25:17;94987.72;;;19.45
45976;BMP280;31696;42.668;23.322;2023-05-07T06:27:18;94992.22;;;19.82
45976;BMP280;31696;42.668;23.322;2023-05-07T06:29:22;94983.72;;;19.70
45976;BMP280;31696;42.668;23.322;2023-05-07T06:31:28;94983.31;;;19.61
45976;BMP280;31696;42.668;23.322;2023-05-07T06:33:35;94970.41;;;20.47
45976;BMP280;31696;42.668;23.322;2023-05-07T06:35:36;94978.97;;;21.02
45976;BMP280;31696;42.668;23.322;2023-05-07T06:37:38;94967.97;;;20.78
45976;BMP280;31696;42.668;23.322;2023-05-07T06:39:44;94972.44;;;21.19
45976;BMP280;31696;42.668;23.322;2023-05-07T06:41:45;94966.41;;;22.08
45976;BMP280;31696;42.668;23.322;2023-05-07T06:43:56;94965.00;;;22.22
45976;BMP280;31696;42.668;23.322;2023-05-07T06:46:17;94962.19;;;21.40
45976;BMP280;31696;42.668;23.322;2023-05-07T06:48:18;94959.59;;;21.56
45976;BMP280;31696;42.668;23.322;2023-05-07T06:50:27;94963.59;;;21.12
45976;BMP280;31696;42.668;23.322;2023-05-07T06:52:31;94959.25;;;21.19
45976;BMP280;31696;42.668;23.322;2023-05-07T06:54:32;94954.06;;;21.81
45976;BMP280;31696;42.668;23.322;2023-05-07T06:56:34;94943.31;;;21.93
45976;BMP280;31696;42.668;23.322;2023-05-07T06:58:37;94946.50;;;22.22
45976;BMP280;31696;42.668;23.322;2023-05-07T07:00:39;94950.81;;;21.98
45976;BMP280;31696;42.668;23.322;2023-05-07T07:02:41;94953.03;;;23.41
45976;BMP280;31696;42.668;23.322;2023-05-07T07:04:43;94941.00;;;23.20
45976;BMP280;31696;42.668;23.322;2023-05-07T07:06:45;94953.06;;;24.19
45976;BMP280;31696;42.668;23.322;2023-05-07T07:08:47;94965.09;;;22.91
45976;BMP280;31696;42.668;23.322;2023-05-07T07:10:50;94968.09;;;23.36
45976;BMP280;31696;42.668;23.322;2023-05-07T07:12:51;94958.81;;;23.00
45976;BMP280;31696;42.668;23.322;2023-05-07T07:14:53;94954.78;;;23.34
45976;BMP280;31696;42.668;23.322;2023-05-07T07:16:54;94957.88;;;23.28
45976;BMP280;31696;42.668;23.322;2023-05-07T07:18:57;94953.75;;;22.71
45976;BMP280;31696;42.668;23.322;2023-05-07T07:20:58;94947.94;;;23.47
45976;BMP280;31696;42.668;23.322;2023-05-07T07:22:59;94950.78;;;23.15
45976;BMP280;31696;42.668;23.322;2023-05-07T07:25:00;94969.28;;;23.51
45976;BMP280;31696;42.668;23.322;2023-05-07T07:27:03;94971.56;;;24.39
45976;BMP280;31696;42.668;23.322;2023-05-07T07:29:08;94968.13;;;24.56
45976;BMP280;31696;42.668;23.322;2023-05-07T07:31:09;94924.28;;;24.11
45976;BMP280;31696;42.668;23.322;2023-05-07T07:33:10;94940.06;;;22.94
45976;BMP280;31696;42.668;23.322;2023-05-07T07:35:12;94941.56;;;22.30
45976;BMP280;31696;42.668;23.322;2023-05-07T07:37:14;94945.78;;;22.04
45976;BMP280;31696;42.668;23.322;2023-05-07T07:39:18;94952.28;;;22.68
45976;BMP280;31696;42.668;23.322;2023-05-07T07:41:22;94945.94;;;22.92
45976;BMP280;31696;42.668;23.322;2023-05-07T07:43:23;94911.03;;;22.98
45976;BMP280;31696;42.668;23.322;2023-05-07T07:45:27;94897.00;;;23.11
45976;BMP280;31696;42.668;23.322;2023-05-07T07:47:28;94943.06;;;23.21
45976;BMP280;31696;42.668;23.322;2023-05-07T07:49:29;94943.13;;;23.61
45976;BMP280;31696;42.668;23.322;2023-05-07T07:51:33;94950.78;;;22.80
45976;BMP280;31696;42.668;23.322;2023-05-07T07:53:35;94957.16;;;22.57
45976;BMP280;31696;42.668;23.322;2023-05-07T07:55:38;94959.13;;;22.90
45976;BMP280;31696;42.668;23.322;2023-05-07T07:57:43;94959.81;;;23.28
45976;BMP280;31696;42.668;23.322;2023-05-07T07:59:45;94959.47;;;23.18
45976;BMP280;31696;42.668;23.322;2023-05-07T08:01:49;94960.13;;;23.73
45976;BMP280;31696;42.668;23.322;2023-05-07T08:03:51;94951.34;;;23.49
45976;BMP280;31696;42.668;23.322;2023-05-07T08:05:53;94955.09;;;24.01
45976;BMP280;31696;42.668;23.322;2023-05-07T08:07:55;94948.59;;;23.10
45976;BMP280;31696;42.668;23.322;2023-05-07T08:10:01;94944.19;;;23.54
45976;BMP280;31696;42.668;23.322;2023-05-07T08:12:03;94948.16;;;23.53
45976;BMP280;31696;42.668;23.322;2023-05-07T08:14:09;94943.41;;;24.08
45976;BMP280;31696;42.668;23.322;2023-05-07T08:16:10;93862.63;;;23.99
45976;BMP280;31696;42.668;23.322;2023-05-07T08:18:11;94946.13;;;24.32
45976;BMP280;31696;42.668;23.322;2023-05-07T08:20:13;94943.09;;;24.20
45976;BMP280;31696;42.668;23.322;2023-05-07T08:22:14;94946.44;;;24.00
45976;BMP280;31696;42.668;23.322;2023-05-07T08:24:15;94938.25;;;24.55
45976;BMP280;31696;42.668;23.322;2023-05-07T08:26:16;94940.41;;;23.78
45976;BMP280;31696;42.668;23.322;2023-05-07T08:28:18;94941.97;;;23.66
45976;BMP280;31696;42.668;23.322;2023-05-07T08:30:19;94937.59;;;24.13
45976;BMP280;31696;42.668;23.322;2023-05-07T08:32:21;94935.31;;;23.45
45976;BMP280;31696;42.668;23.322;2023-05-07T08:34:22;94938.19;;;23.33
45976;BMP280;31696;42.668;23.322;2023-05-07T08:36:24;94933.91;;;23.81
45976;BMP280;31696;42.668;23.322;2023-05-07T08:38:28;94931.44;;;23.87
45976;BMP280;31696;42.668;23.322;2023-05-07T08:40:31;94926.66;;;24.23
45976;BMP280;31696;42.668;23.322;2023-05-07T08:42:37;94928.00;;;24.04
45976;BMP280;31696;42.668;23.322;2023-05-07T08:44:42;94922.25;;;24.32
45976;BMP280;31696;42.668;23.322;2023-05-07T08:46:46;94924.34;;;24.13
45976;BMP280;31696;42.668;23.322;2023-05-07T08:48:50;94922.09;;;24.69
45976;BMP280;31696;42.668;23.322;2023-05-07T08:50:50;94922.09;;;24.69
45976;BMP280;31696;42.668;23.322;2023-05-07T08:52:51;94927.47;;;23.49
45976;BMP280;31696;42.668;23.322;2023-05-07T08:54:53;94918.03;;;24.03
45976;BMP280;31696;42.668;23.322;2023-05-07T08:56:55;94908.69;;;24.22
45976;BMP280;31696;42.668;23.322;2023-05-07T08:58:56;94908.88;;;23.86
45976;BMP280;31696;42.668;23.322;2023-05-07T09:01:03;94911.91;;;22.85
45976;BMP280;31696;42.668;23.322;2023-05-07T09:03:05;94908.84;;;22.39
45976;BMP280;31696;42.668;23.322;2023-05-07T09:05:07;94911.38;;;23.06
45976;BMP280;31696;42.668;23.322;2023-05-07T09:07:09;94902.91;;;22.92
45976;BMP280;31696;42.668;23.322;2023-05-07T09:09:15;94896.97;;;23.48
45976;BMP280;31696;42.668;23.322;2023-05-07T09:11:22;94897.44;;;24.01
45976;BMP280;31696;42.668;23.322;2023-05-07T09:13:24;94902.06;;;23.42
45976;BMP280;31696;42.668;23.322;2023-05-07T09:15:26;94905.13;;;23.93
45976;BMP280;31696;42.668;23.322;2023-05-07T09:17:28;94900.59;;;23.19
45976;BMP280;31696;42.668;23.322;2023-05-07T09:19:29;94901.06;;;23.14
45976;BMP280;31696;42.668;23.322;2023-05-07T09:21:35;94890.41;;;23.88
45976;BMP280;31696;42.668;23.322;2023-05-07T09:23:39;94891.84;;;24.13
45976;BMP280;31696;42.668;23.322;2023-05-07T09:25:40;94882.91;;;23.44
45976;BMP280;31696;42.668;23.322;2023-05-07T09:27:48;94889.06;;;22.76
45976;BMP280;31696;42.668;23.322;2023-05-07T09:29:49;94887.50;;;23.43
45976;BMP280;31696;42.668;23.322;2023-05-07T09:31:50;94891.84;;;23.15
45976;BMP280;31696;42.668;23.322;2023-05-07T09:33:52;94885.19;;;23.53
45976;BMP280;31696;42.668;23.322;2023-05-07T09:35:57;94889.41;;;23.60
45976;BMP280;31696;42.668;23.322;2023-05-07T09:37:59;94873.53;;;23.41
45976;BMP280;31696;42.668;23.322;2023-05-07T09:40:02;94884.72;;;23.39
45976;BMP280;31696;42.668;23.322;2023-05-07T09:42:05;94880.75;;;23.58
45976;BMP280;31696;42.668;23.322;2023-05-07T09:44:09;94874.13;;;23.78
45976;BMP280;31696;42.668;23.322;2023-05-07T09:46:15;94875.44;;;23.77
45976;BMP280;31696;42.668;23.322;2023-05-07T09:48:23;94878.94;;;23.25
45976;BMP280;31696;42.668;23.322;2023-05-07T09:50:28;94869.84;;;23.30
45976;BMP280;31696;42.668;23.322;2023-05-07T09:52:29;94866.66;;;23.33
45976;BMP280;31696;42.668;23.322;2023-05-07T09:54:35;94865.94;;;22.76
45976;BMP280;31696;42.668;23.322;2023-05-07T09:56:38;94872.34;;;22.89
45976;BMP280;31696;42.668;23.322;2023-05-07T09:58:42;94872.53;;;23.12
45976;BMP280;31696;42.668;23.322;2023-05-07T10:00:43;94869.63;;;23.24
45976;BMP280;31696;42.668;23.322;2023-05-07T10:02:48;94864.44;;;22.71
45976;BMP280;31696;42.668;23.322;2023-05-07T10:04:51;94852.19;;;23.17
45976;BMP280;31696;42.668;23.322;2023-05-07T10:06:57;94856.97;;;23.03
45976;BMP280;31696;42.668;23.322;2023-05-07T10:08:59;94863.84;;;23.10
45976;BMP280;31696;42.668;23.322;2023-05-07T10:11:00;94852.19;;;23.17
45976;BMP280;31696;42.668;23.322;2023-05-07T10:13:03;94844.06;;;23.13
45976;BMP280;31696;42.668;23.322;2023-05-07T10:15:11;94855.53;;;23.00
45976;BMP280;31696;42.668;23.322;2023-05-07T10:17:16;94853.16;;;22.71
45976;BMP280;31696;42.668;23.322;2023-05-07T10:19:17;94847.25;;;22.90
45976;BMP280;31696;42.668;23.322;2023-05-07T10:21:21;94848.59;;;22.91
45976;BMP280;31696;42.668;23.322;2023-05-07T10:23:27;94839.75;;;22.67
45976;BMP280;31696;42.668;23.322;2023-05-07T10:25:32;94848.31;;;22.65
45976;BMP280;31696;42.668;23.322;2023-05-07T10:27:38;94834.94;;;22.79
45976;BMP280;31696;42.668;23.322;2023-05-07T10:29:42;94840.13;;;22.77
45976;BMP280;31696;42.668;23.322;2023-05-07T10:32:08;94834.69;;;23.10
45976;BMP280;31696;42.668;23.322;2023-05-07T10:34:12;94837.25;;;22.88
45976;BMP280;31696;42.668;23.322;2023-05-07T10:36:15;94822.22;;;22.57
45976;BMP280;31696;42.668;23.322;2023-05-07T10:38:16;94820.44;;;22.44
45976;BMP280;31696;42.668;23.322;2023-05-07T10:40:20;94820.47;;;22.46
45976;BMP280;31696;42.668;23.322;2023-05-07T10:42:21;94816.59;;;22.85
45976;BMP280;31696;42.668;23.322;2023-05-07T10:44:29;94826.50;;;22.84
45976;BMP280;31696;42.668;23.322;2023-05-07T10:46:34;94821.91;;;22.49
45976;BMP280;31696;42.668;23.322;2023-05-07T10:51:18;94828.47;;;22.13
45976;BMP280;31696;42.668;23.322;2023-05-07T10:55:27;94814.53;;;21.95
45976;BMP280;31696;42.668;23.322;2023-05-07T10:57:41;94808.53;;;22.10
45976;BMP280;31696;42.668;23.322;2023-05-07T11:02:17;94812.69;;;22.15
45976;BMP280;31696;42.668;23.322;2023-05-07T11:04:23;94813.25;;;22.29
45976;BMP280;31696;42.668;23.322;2023-05-07T11:06:39;94806.84;;;22.01
45976;BMP280;31696;42.668;23.322;2023-05-07T11:08:53;94823.94;;;21.98
45976;BMP280;31696;42.668;23.322;2023-05-07T11:10:56;94819.63;;;22.07
45976;BMP280;31696;42.668;23.322;2023-05-07T11:13:12;94810.88;;;22.02
45976;BMP280;31696;42.668;23.322;2023-05-07T11:15:33;94810.59;;;21.96
45976;BMP280;31696;42.668;23.322;2023-05-07T11:17:53;94807.38;;;21.98
45976;BMP280;31696;42.668;23.322;2023-05-07T11:19:57;94807.81;;;22.25
45976;BMP280;31696;42.668;23.322;2023-05-07T11:24:45;94800.63;;;22.45
45976;BMP280;31696;42.668;23.322;2023-05-07T11:26:48;94797.78;;;22.41
45976;BMP280;31696;42.668;23.322;2023-05-07T11:29:04;94794.41;;;22.39
45976;BMP280;31696;42.668;23.322;2023-05-07T11:31:10;94798.41;;;22.22
45976;BMP280;31696;42.668;23.322;2023-05-07T11:33:11;94789.03;;;22.19
45976;BMP280;31696;42.668;23.322;2023-05-07T11:35:13;94792.06;;;21.94
45976;BMP280;31696;42.668;23.322;2023-05-07T11:37:16;94795.53;;;22.16
45976;BMP280;31696;42.668;23.322;2023-05-07T11:39:24;94800.91;;;22.36
45976;BMP280;31696;42.668;23.322;2023-05-07T11:41:34;94790.25;;;22.51
45976;BMP280;31696;42.668;23.322;2023-05-07T11:43:36;94796.53;;;22.42
45976;BMP280;31696;42.668;23.322;2023-05-07T11:45:36;94790.34;;;22.18
45976;BMP280;31696;42.668;23.322;2023-05-07T11:47:36;94789.41;;;22.12